createdAt,value
2022-07-30T00:00:31.197Z,2.62
2022-07-30T00:02:59.446Z,1.98
2022-07-30T00:05:28.983Z,1.73
2022-07-30T00:07:56.848Z,2.28
2022-07-30T00:10:25.121Z,2.37
2022-07-30T00:12:53.031Z,2.15
2022-07-30T00:15:21.312Z,2.78
2022-07-30T00:17:49.512Z,2.40
2022-07-30T00:20:18.489Z,2.75
2022-07-30T00:22:47.980Z,2.30
2022-07-30T00:25:16.382Z,2.20
2022-07-30T00:27:45.375Z,2.45
2022-07-30T00:30:13.932Z,2.42
2022-07-30T00:32:43.241Z,2.70
2022-07-30T00:35:11.813Z,2.12
2022-07-30T00:37:39.939Z,3.00
2022-07-30T00:40:10.794Z,3.05
2022-07-30T00:42:40.956Z,2.37
2022-07-30T00:45:10.602Z,2.72
2022-07-30T00:47:39.821Z,2.80
2022-07-30T00:50:10.179Z,2.80
2022-07-30T00:52:39.208Z,2.78
2022-07-30T00:55:10.765Z,2.83
2022-07-30T00:57:39.286Z,3.03
2022-07-30T01:00:10.330Z,3.15
2022-07-30T01:02:38.816Z,3.20
2022-07-30T01:05:08.301Z,2.55
2022-07-30T01:07:36.596Z,2.70
2022-07-30T01:10:05.919Z,3.25
2022-07-30T01:12:35.332Z,3.30
2022-07-30T01:15:06.100Z,3.08
2022-07-30T01:17:35.228Z,3.08
2022-07-30T01:20:06.219Z,2.92
2022-07-30T01:22:46.528Z,3.62
2022-07-30T01:25:22.793Z,2.75
2022-07-30T01:27:57.714Z,3.55
2022-07-30T01:30:28.794Z,3.00
2022-07-30T01:32:59.539Z,2.87
2022-07-30T01:35:29.734Z,2.85
2022-07-30T01:38:00.881Z,3.00
2022-07-30T01:40:30.424Z,2.97
2022-07-30T01:43:02.398Z,3.35
2022-07-30T01:45:33.783Z,3.05
2022-07-30T01:48:12.056Z,3.20
2022-07-30T01:50:45.021Z,3.33
2022-07-30T01:53:17.717Z,3.70
2022-07-30T01:55:46.882Z,3.55
2022-07-30T01:58:20.083Z,3.62
2022-07-30T02:00:50.626Z,4.05
2022-07-30T02:03:18.987Z,3.83
2022-07-30T02:05:54.943Z,3.58
2022-07-30T02:08:29.806Z,3.83
2022-07-30T02:11:04.319Z,3.97
2022-07-30T02:13:40.927Z,3.95
2022-07-30T02:16:14.701Z,3.65
2022-07-30T02:18:52.016Z,3.45
2022-07-30T02:21:22.006Z,4.18
2022-07-30T02:23:51.882Z,4.35
2022-07-30T02:26:25.360Z,4.53
2022-07-30T02:28:59.020Z,4.70
2022-07-30T02:31:29.432Z,4.22
2022-07-30T02:34:00.363Z,3.87
2022-07-30T02:36:29.720Z,3.92
2022-07-30T02:38:59.250Z,4.72
2022-07-30T02:41:30.488Z,4.47
2022-07-30T02:44:01.808Z,4.22
2022-07-30T02:46:31.494Z,4.45
2022-07-30T02:49:03.096Z,4.35
2022-07-30T02:51:32.561Z,4.50
2022-07-30T02:54:03.958Z,4.00
2022-07-30T02:56:32.805Z,3.95
2022-07-30T02:59:04.054Z,4.60
2022-07-30T03:01:33.954Z,4.15
2022-07-30T03:04:03.746Z,4.50
2022-07-30T03:06:32.976Z,4.00
2022-07-30T03:09:03.265Z,4.95
2022-07-30T03:11:32.773Z,4.00
2022-07-30T03:14:03.918Z,4.28
2022-07-30T03:16:35.230Z,4.10
2022-07-30T03:19:07.647Z,4.45
2022-07-30T03:21:37.758Z,4.07
2022-07-30T03:24:08.359Z,4.43
2022-07-30T03:26:38.242Z,3.90
2022-07-30T03:29:08.470Z,4.25
2022-07-30T03:31:40.624Z,4.35
2022-07-30T03:34:09.912Z,4.43
2022-07-30T03:36:41.572Z,4.05
2022-07-30T03:39:10.318Z,3.95
2022-07-30T03:41:40.030Z,4.45
2022-07-30T03:44:10.380Z,4.10
2022-07-30T03:46:39.178Z,4.40
2022-07-30T03:49:07.422Z,4.20
2022-07-30T03:51:37.817Z,3.62
2022-07-30T03:54:13.179Z,4.32
2022-07-30T03:56:43.789Z,4.18
2022-07-30T03:59:14.971Z,4.18
2022-07-30T04:01:43.365Z,3.70
2022-07-30T04:04:12.373Z,4.20
2022-07-30T04:06:42.890Z,3.55
2022-07-30T04:09:12.805Z,3.35
2022-07-30T04:11:42.071Z,3.60
2022-07-30T04:14:10.864Z,4.00
2022-07-30T04:16:45.868Z,3.50
2022-07-30T04:19:20.719Z,4.10
2022-07-30T04:21:50.262Z,3.80
2022-07-30T04:24:19.839Z,4.35
2022-07-30T04:26:48.946Z,4.30
2022-07-30T04:29:21.415Z,4.75
2022-07-30T04:31:54.764Z,4.03
2022-07-30T04:34:24.364Z,4.05
2022-07-30T04:36:52.565Z,4.93
2022-07-30T04:39:20.866Z,4.37
2022-07-30T04:41:50.152Z,3.65
2022-07-30T04:44:21.737Z,3.33
2022-07-30T04:46:50.895Z,3.60
2022-07-30T04:49:22.492Z,3.40
2022-07-30T04:51:52.464Z,2.72
2022-07-30T04:54:22.458Z,2.87
2022-07-30T04:56:54.279Z,3.00
2022-07-30T04:59:26.401Z,3.60
2022-07-30T05:01:58.315Z,3.35
2022-07-30T05:04:30.217Z,2.58
2022-07-30T05:06:59.346Z,3.20
2022-07-30T05:09:28.625Z,3.47
2022-07-30T05:11:57.939Z,3.10
2022-07-30T05:14:27.144Z,2.95
2022-07-30T05:16:56.140Z,3.50
2022-07-30T05:19:25.161Z,3.37
2022-07-30T05:21:54.685Z,3.22
2022-07-30T05:24:22.960Z,2.97
2022-07-30T05:26:51.111Z,3.30
2022-07-30T05:29:20.309Z,3.75
2022-07-30T05:31:49.713Z,3.12
2022-07-30T05:34:17.960Z,2.72
2022-07-30T05:36:46.695Z,3.90
2022-07-30T05:39:16.774Z,3.45
2022-07-30T05:41:45.279Z,3.58
2022-07-30T05:44:13.847Z,4.05
2022-07-30T05:46:42.737Z,4.12
2022-07-30T05:49:10.693Z,3.03
2022-07-30T05:51:39.395Z,3.10
2022-07-30T05:54:07.306Z,3.25
2022-07-30T05:56:37.939Z,3.45
2022-07-30T05:59:06.221Z,3.35
2022-07-30T06:01:34.902Z,3.50
2022-07-30T06:04:03.991Z,3.35
2022-07-30T06:06:32.784Z,3.33
2022-07-30T06:09:00.802Z,3.55
2022-07-30T06:11:29.899Z,3.78
2022-07-30T06:13:59.101Z,2.83
2022-07-30T06:16:27.045Z,3.83
2022-07-30T06:18:55.246Z,3.62
2022-07-30T06:21:23.723Z,3.37
2022-07-30T06:23:52.750Z,3.83
2022-07-30T06:26:21.566Z,4.43
2022-07-30T06:28:49.612Z,3.60
2022-07-30T06:31:19.489Z,3.65
2022-07-30T06:33:47.992Z,3.50
2022-07-30T06:36:15.886Z,4.00
2022-07-30T06:38:45.385Z,3.90
2022-07-30T06:41:15.660Z,3.35
2022-07-30T06:43:44.882Z,3.65
2022-07-30T06:46:14.520Z,3.30
2022-07-30T06:48:43.916Z,3.53
2022-07-30T06:51:12.359Z,3.53
2022-07-30T06:53:42.535Z,3.83
2022-07-30T06:56:15.829Z,3.45
2022-07-30T06:58:44.548Z,3.20
2022-07-30T07:01:15.846Z,2.95
2022-07-30T07:03:45.312Z,3.37
2022-07-30T07:06:13.518Z,3.92
2022-07-30T07:08:42.998Z,3.15
2022-07-30T07:11:11.790Z,3.22
2022-07-30T07:13:41.698Z,3.20
2022-07-30T07:16:10.701Z,3.50
2022-07-30T07:18:39.999Z,3.28
2022-07-30T07:21:09.882Z,3.20
2022-07-30T07:23:42.316Z,3.00
2022-07-30T07:26:14.460Z,3.28
2022-07-30T07:28:42.443Z,3.25
2022-07-30T07:31:11.394Z,3.42
2022-07-30T07:34:00.387Z,2.95
2022-07-30T07:36:29.691Z,3.22
2022-07-30T07:38:57.685Z,3.05
2022-07-30T07:41:26.373Z,3.70
2022-07-30T07:43:54.235Z,4.28
2022-07-30T07:46:33.750Z,2.97
2022-07-30T07:49:02.862Z,3.12
2022-07-30T07:51:34.749Z,3.22
2022-07-30T07:54:22.824Z,3.10
2022-07-30T07:56:52.879Z,3.25
2022-07-30T07:59:23.445Z,3.37
2022-07-30T08:01:56.005Z,3.65
2022-07-30T08:04:26.439Z,3.58
2022-07-30T08:06:58.287Z,3.40
2022-07-30T08:09:43.583Z,3.35
2022-07-30T08:12:13.283Z,3.83
2022-07-30T08:14:43.396Z,3.78
2022-07-30T08:17:14.495Z,3.25
2022-07-30T08:19:44.332Z,3.62
2022-07-30T08:22:13.976Z,3.87
2022-07-30T08:24:42.064Z,3.03
2022-07-30T08:27:10.339Z,3.45
2022-07-30T08:29:38.332Z,3.65
2022-07-30T08:32:06.913Z,3.33
2022-07-30T08:34:36.306Z,3.50
2022-07-30T08:37:04.477Z,4.32
2022-07-30T08:39:33.658Z,3.42
2022-07-30T08:42:05.124Z,3.92
2022-07-30T08:44:36.254Z,4.05
2022-07-30T08:47:08.049Z,3.22
2022-07-30T08:49:40.661Z,4.00
2022-07-30T08:52:09.647Z,3.75
2022-07-30T08:54:40.182Z,4.00
2022-07-30T08:57:08.961Z,4.05
2022-07-30T08:59:59.295Z,3.33
2022-07-30T09:02:29.414Z,3.95
2022-07-30T09:04:57.816Z,3.62
2022-07-30T09:07:26.371Z,3.70
2022-07-30T09:09:57.476Z,3.70
2022-07-30T09:12:41.425Z,3.50
2022-07-30T09:15:14.149Z,3.35
2022-07-30T09:17:51.375Z,3.92
2022-07-30T09:20:20.922Z,3.85
2022-07-30T09:22:50.681Z,3.72
2022-07-30T09:25:39.147Z,3.70
2022-07-30T09:28:16.173Z,3.90
2022-07-30T09:30:53.655Z,3.85
2022-07-30T09:33:36.440Z,3.30
2022-07-30T09:36:08.911Z,3.15
2022-07-30T09:38:50.473Z,3.25
2022-07-30T09:41:39.262Z,3.15
2022-07-30T09:44:08.255Z,3.83
2022-07-30T09:46:45.414Z,3.37
2022-07-30T09:49:16.255Z,3.55
2022-07-30T09:51:54.559Z,3.30
2022-07-30T09:54:26.476Z,3.50
2022-07-30T09:57:23.161Z,3.60
2022-07-30T09:59:55.459Z,3.67
2022-07-30T10:02:32.310Z,3.67
2022-07-30T10:05:14.940Z,4.10
2022-07-30T10:07:52.144Z,3.85
2022-07-30T10:10:25.364Z,4.10
2022-07-30T10:12:59.211Z,3.90
2022-07-30T10:15:30.742Z,3.33
2022-07-30T10:18:01.523Z,3.70
2022-07-30T10:20:32.126Z,3.35
2022-07-30T10:23:08.787Z,3.53
2022-07-30T10:25:49.454Z,3.67
2022-07-30T10:28:25.966Z,3.97
2022-07-30T10:30:56.294Z,4.30
2022-07-30T10:33:34.972Z,3.47
2022-07-30T10:36:06.049Z,3.85
2022-07-30T10:38:43.026Z,3.62
2022-07-30T10:41:44.232Z,4.15
2022-07-30T10:44:29.025Z,3.35
2022-07-30T10:47:07.043Z,3.45
2022-07-30T10:49:40.912Z,3.05
2022-07-30T10:52:10.347Z,3.35
2022-07-30T10:54:44.534Z,3.37
2022-07-30T10:57:32.326Z,3.05
2022-07-30T11:00:17.730Z,2.85
2022-07-30T11:03:40.552Z,3.15
2022-07-30T11:06:29.267Z,3.70
2022-07-30T11:08:58.248Z,3.22
2022-07-30T11:12:04.806Z,3.42
2022-07-30T11:15:06.864Z,3.78
2022-07-30T11:18:12.351Z,3.40
2022-07-30T11:20:43.267Z,3.12
2022-07-30T11:23:40.331Z,3.47
2022-07-30T11:26:13.936Z,3.40
2022-07-30T11:28:45.403Z,3.17
2022-07-30T11:31:49.865Z,3.35
2022-07-30T11:34:30.985Z,3.08
2022-07-30T11:37:22.357Z,2.95
2022-07-30T11:40:13.960Z,2.72
2022-07-30T11:42:43.546Z,2.75
2022-07-30T11:45:26.800Z,2.80
2022-07-30T11:47:58.097Z,3.35
2022-07-30T11:50:29.655Z,2.50
2022-07-30T11:52:59.983Z,3.45
2022-07-30T11:55:30.319Z,3.17
2022-07-30T11:57:59.742Z,2.85
2022-07-30T12:00:35.567Z,2.95
2022-07-30T12:03:09.706Z,3.35
2022-07-30T12:05:39.698Z,2.83
2022-07-30T12:08:08.455Z,3.47
2022-07-30T12:10:45.295Z,3.95
2022-07-30T12:13:16.027Z,3.87
2022-07-30T12:15:46.521Z,4.15
2022-07-30T12:18:26.417Z,3.60
2022-07-30T12:20:59.516Z,3.72
2022-07-30T12:23:28.611Z,4.20
2022-07-30T12:25:56.959Z,4.00
2022-07-30T12:28:28.091Z,3.87
2022-07-30T12:30:57.432Z,3.97
2022-07-30T12:33:26.130Z,3.83
2022-07-30T12:35:56.662Z,3.08
2022-07-30T12:38:26.253Z,3.58
2022-07-30T12:40:56.400Z,2.80
2022-07-30T12:43:47.600Z,3.30
2022-07-30T12:46:18.842Z,3.08
2022-07-30T12:48:55.239Z,2.70
2022-07-30T12:51:26.759Z,2.55
2022-07-30T12:53:56.388Z,2.70
2022-07-30T12:56:26.153Z,2.50
2022-07-30T12:58:55.789Z,1.90
2022-07-30T13:01:41.921Z,2.60
2022-07-30T13:04:10.974Z,2.70
2022-07-30T13:06:42.028Z,2.70
2022-07-30T13:09:20.124Z,1.85
2022-07-30T13:11:50.004Z,2.33
2022-07-30T13:14:18.316Z,2.45
2022-07-30T13:16:46.590Z,2.85
2022-07-30T13:19:14.510Z,2.70
2022-07-30T13:21:49.898Z,2.47
2022-07-30T13:24:18.500Z,2.75
2022-07-30T13:26:48.023Z,2.33
2022-07-30T13:29:19.030Z,2.60
2022-07-30T13:31:47.234Z,2.60
2022-07-30T13:34:15.094Z,2.62
2022-07-30T13:36:44.760Z,2.42
2022-07-30T13:39:13.176Z,2.30
2022-07-30T13:41:42.831Z,2.42
2022-07-30T13:44:10.798Z,2.45
2022-07-30T13:46:41.174Z,2.62
2022-07-30T13:49:10.777Z,2.70
2022-07-30T13:51:39.130Z,2.20
2022-07-30T13:54:08.367Z,2.55
2022-07-30T13:56:40.804Z,2.53
2022-07-30T13:59:09.301Z,2.62
2022-07-30T14:01:38.107Z,2.53
2022-07-30T14:04:06.801Z,2.50
2022-07-30T14:06:34.629Z,2.55
2022-07-30T14:09:02.544Z,2.95
2022-07-30T14:11:32.568Z,2.40
2022-07-30T14:14:00.506Z,2.40
2022-07-30T14:16:44.842Z,2.50
2022-07-30T14:19:22.721Z,2.30
2022-07-30T14:21:53.618Z,2.25
2022-07-30T14:24:22.207Z,2.40
2022-07-30T14:26:55.863Z,2.40
2022-07-30T14:29:27.067Z,2.10
2022-07-30T14:31:55.137Z,2.40
2022-07-30T14:34:22.995Z,2.45
2022-07-30T14:36:51.175Z,2.30
2022-07-30T14:39:19.084Z,2.00
2022-07-30T14:41:46.924Z,2.08
2022-07-30T14:44:16.635Z,2.28
2022-07-30T14:46:52.085Z,2.17
2022-07-30T14:49:21.281Z,1.92
2022-07-30T14:51:49.178Z,2.22
2022-07-30T14:54:17.133Z,2.15
2022-07-30T14:56:45.203Z,1.98
2022-07-30T14:59:13.207Z,1.75
2022-07-30T15:01:43.780Z,1.55
2022-07-30T15:04:12.495Z,1.80
2022-07-30T15:06:41.796Z,1.30
2022-07-30T15:09:10.406Z,1.60
2022-07-30T15:12:08.012Z,1.60
2022-07-30T15:14:28.402Z,2.05
2022-07-30T15:17:03.905Z,1.80
2022-07-30T15:19:32.372Z,1.55
2022-07-30T15:22:02.698Z,1.75
2022-07-30T15:24:32.162Z,2.08
2022-07-30T15:27:00.504Z,2.08
2022-07-30T15:29:30.134Z,1.83
2022-07-30T15:32:01.860Z,1.73
2022-07-30T15:34:34.413Z,1.67
2022-07-30T15:37:03.339Z,1.77
2022-07-30T15:39:32.988Z,2.08
2022-07-30T15:42:01.991Z,1.58
2022-07-30T15:44:31.978Z,1.85
2022-07-30T15:47:02.205Z,1.37
2022-07-30T15:49:30.438Z,1.85
2022-07-30T15:51:59.994Z,1.90
2022-07-30T15:54:28.795Z,1.70
2022-07-30T15:57:01.216Z,1.62
2022-07-30T15:59:30.259Z,2.15
2022-07-30T16:01:58.855Z,1.60
2022-07-30T16:04:31.986Z,1.52
2022-07-30T16:07:01.037Z,1.67
2022-07-30T16:09:29.187Z,1.60
2022-07-30T16:11:57.195Z,1.80
2022-07-30T16:14:27.126Z,1.70
2022-07-30T16:16:55.398Z,1.67
2022-07-30T16:19:23.467Z,1.98
2022-07-30T16:21:53.077Z,1.77
2022-07-30T16:24:21.239Z,2.35
2022-07-30T16:26:50.541Z,1.80
2022-07-30T16:29:18.840Z,2.33
2022-07-30T16:31:47.227Z,1.55
2022-07-30T16:34:15.317Z,2.00
2022-07-30T16:36:43.282Z,1.92
2022-07-30T16:39:12.800Z,1.67
2022-07-30T16:41:40.989Z,1.65
2022-07-30T16:44:09.390Z,1.52
2022-07-30T16:46:38.676Z,1.67
2022-07-30T16:49:07.181Z,1.83
2022-07-30T16:51:35.232Z,1.62
2022-07-30T16:54:03.747Z,1.55
2022-07-30T16:56:33.032Z,1.70
2022-07-30T16:59:00.912Z,1.42
2022-07-30T17:01:29.668Z,1.30
2022-07-30T17:03:58.780Z,1.73
2022-07-30T17:06:27.034Z,1.67
2022-07-30T17:08:55.543Z,1.70
2022-07-30T17:11:47.669Z,1.73
2022-07-30T17:14:14.016Z,1.58
2022-07-30T17:16:42.293Z,1.58
2022-07-30T17:19:10.181Z,1.27
2022-07-30T17:21:38.976Z,1.05
2022-07-30T17:24:11.323Z,1.37
2022-07-30T17:26:42.840Z,1.60
2022-07-30T17:29:14.283Z,1.50
2022-07-30T17:31:45.258Z,1.40
2022-07-30T17:34:18.144Z,1.40
2022-07-30T17:36:51.766Z,1.62
2022-07-30T17:40:18.965Z,1.37
2022-07-30T17:42:10.455Z,1.48
2022-07-30T17:44:39.342Z,1.70
2022-07-30T17:47:14.005Z,1.52
2022-07-30T17:49:43.024Z,1.60
2022-07-30T17:52:11.154Z,1.50
2022-07-30T17:54:39.219Z,1.33
2022-07-30T17:57:07.427Z,1.23
2022-07-30T17:59:35.575Z,1.27
2022-07-30T18:02:04.703Z,1.02
2022-07-30T18:04:35.094Z,1.42
2022-07-30T18:07:03.522Z,1.30
2022-07-30T18:09:39.104Z,1.30
2022-07-30T18:12:08.896Z,1.90
2022-07-30T18:14:37.279Z,1.50
2022-07-30T18:17:07.457Z,1.23
2022-07-30T18:19:39.549Z,1.80
2022-07-30T18:22:08.977Z,1.60
2022-07-30T18:24:39.990Z,1.40
2022-07-30T18:27:08.785Z,1.67
2022-07-30T18:29:36.663Z,1.70
2022-07-30T18:32:05.261Z,1.65
2022-07-30T18:34:33.840Z,1.67
2022-07-30T18:37:03.038Z,1.48
2022-07-30T18:39:30.906Z,1.70
2022-07-30T18:41:59.168Z,2.10
2022-07-30T18:44:27.060Z,2.00
2022-07-30T18:46:54.949Z,2.12
2022-07-30T18:49:36.130Z,1.85
2022-07-30T18:52:08.045Z,1.70
2022-07-30T18:54:36.869Z,1.80
2022-07-30T18:57:05.897Z,1.48
2022-07-30T18:59:33.840Z,2.05
2022-07-30T19:02:04.610Z,1.62
2022-07-30T19:04:32.976Z,1.98
2022-07-30T19:07:01.338Z,1.98
2022-07-30T19:09:30.539Z,2.12
2022-07-30T19:11:58.424Z,2.00
2022-07-30T19:14:26.599Z,1.92
2022-07-30T19:16:54.479Z,2.00
2022-07-30T19:19:27.796Z,2.12
2022-07-30T19:21:55.776Z,2.33
2022-07-30T19:24:23.737Z,2.45
2022-07-30T19:26:57.422Z,1.90
2022-07-30T19:29:25.396Z,1.95
2022-07-30T19:31:53.288Z,2.05
2022-07-30T19:34:21.663Z,2.15
2022-07-30T19:36:49.595Z,1.98
2022-07-30T19:39:21.272Z,2.10
2022-07-30T19:42:02.450Z,1.77
2022-07-30T19:44:36.772Z,2.30
2022-07-30T19:47:07.210Z,2.53
2022-07-30T19:49:40.428Z,2.58
2022-07-30T19:52:22.830Z,2.10
2022-07-30T19:54:51.799Z,2.37
2022-07-30T19:57:20.611Z,2.70
2022-07-30T20:00:00.249Z,2.37
2022-07-30T20:02:40.319Z,2.60
2022-07-30T20:05:11.698Z,2.60
2022-07-30T20:07:44.631Z,2.80
2022-07-30T20:10:13.125Z,2.33
2022-07-30T20:12:49.397Z,2.50
2022-07-30T20:15:19.737Z,2.35
2022-07-30T20:17:47.651Z,2.30
2022-07-30T20:20:15.786Z,2.60
2022-07-30T20:22:44.210Z,2.50
2022-07-30T20:25:13.386Z,2.58
2022-07-30T20:27:42.205Z,2.58
2022-07-30T20:30:12.725Z,2.60
2022-07-30T20:32:46.482Z,2.87
2022-07-30T20:35:15.266Z,3.00
2022-07-30T20:37:55.356Z,2.50
2022-07-30T20:40:26.680Z,2.45
2022-07-30T20:42:55.398Z,2.53
2022-07-30T20:45:24.649Z,2.90
2022-07-30T20:47:56.463Z,2.65
2022-07-30T20:50:30.207Z,2.67
2022-07-30T20:52:59.677Z,3.15
2022-07-30T20:55:28.022Z,3.12
2022-07-30T20:58:07.971Z,2.92
2022-07-30T21:00:49.286Z,2.60
2022-07-30T21:03:21.489Z,2.65
2022-07-30T21:05:51.298Z,2.70
2022-07-30T21:08:21.261Z,3.00
2022-07-30T21:10:55.120Z,2.90
2022-07-30T21:13:24.880Z,2.78
2022-07-30T21:16:03.087Z,2.95
2022-07-30T21:18:33.120Z,2.90
2022-07-30T21:21:04.985Z,3.05
2022-07-30T21:23:33.997Z,3.05
2022-07-30T21:26:05.839Z,3.20
2022-07-30T21:28:49.992Z,2.92
2022-07-30T21:31:18.170Z,3.35
2022-07-30T21:33:47.547Z,3.40
2022-07-30T21:36:15.746Z,2.90
2022-07-30T21:38:43.927Z,3.08
2022-07-30T21:41:14.137Z,2.87
2022-07-30T21:43:44.409Z,3.12
2022-07-30T21:46:12.884Z,2.97
2022-07-30T21:48:43.261Z,3.12
2022-07-30T21:51:13.626Z,2.97
2022-07-30T21:53:45.319Z,3.15
2022-07-30T21:56:15.922Z,3.28
2022-07-30T21:58:45.028Z,2.97
2022-07-30T22:01:17.023Z,2.80
2022-07-30T22:04:01.461Z,2.95
2022-07-30T22:06:34.495Z,2.78
2022-07-30T22:09:09.897Z,3.08
2022-07-30T22:11:47.665Z,2.83
2022-07-30T22:14:15.871Z,3.22
2022-07-30T22:19:31.992Z,2.97
2022-07-30T22:22:05.102Z,3.00
2022-07-30T22:24:49.412Z,3.67
2022-07-30T22:27:17.338Z,2.95
2022-07-30T22:29:50.253Z,3.20
2022-07-30T22:32:23.107Z,2.92
2022-07-30T22:34:51.776Z,3.10
2022-07-30T22:37:22.283Z,2.87
2022-07-30T22:39:52.352Z,2.85
2022-07-30T22:42:24.332Z,2.95
2022-07-30T22:44:53.155Z,3.00
2022-07-30T22:50:11.597Z,3.67
2022-07-30T22:52:44.279Z,3.35
2022-07-30T22:55:23.733Z,3.05
2022-07-30T22:57:52.624Z,3.22
2022-07-30T23:00:27.715Z,2.75
2022-07-30T23:02:57.687Z,4.12
2022-07-30T23:05:26.307Z,3.28
2022-07-30T23:07:56.300Z,3.78
2022-07-30T23:10:25.409Z,3.78
2022-07-30T23:12:32.423Z,3.65
2022-07-30T23:12:33.917Z,3.12
2022-07-30T23:12:56.055Z,3.65
2022-07-30T23:15:24.573Z,4.18
2022-07-30T23:17:53.109Z,4.18
2022-07-30T23:20:21.760Z,3.90
2022-07-30T23:22:50.524Z,3.65
2022-07-30T23:25:19.913Z,3.90
2022-07-30T23:27:47.871Z,3.72
2022-07-30T23:30:16.114Z,4.72
2022-07-30T23:32:44.188Z,4.28
2022-07-30T23:35:12.228Z,4.43
2022-07-30T23:37:47.633Z,3.90
2022-07-30T23:40:17.174Z,4.30
2022-07-30T23:42:47.271Z,4.20
2022-07-30T23:45:15.249Z,4.10
2022-07-30T23:48:00.501Z,3.78
2022-07-30T23:50:31.291Z,4.53
2022-07-30T23:52:59.481Z,3.87
2022-07-30T23:55:27.955Z,3.78
2022-07-30T23:57:57.937Z,4.40
